Time;durP1;ratioP1;P1;durP2;ratioP2;P2;SDS_P1;SDS_P2;PMS_P1;PMS_P2;Temp;Humidity;BMP_temperature;BMP_pressure;BME280_temperature;BME280_humidity;BME280_pressure;Samples;Min_cycle;Max_cycle;Signal;HPM_P1;HPM_P2
2022/06/14 00:03:02;;;;;;;;;;;;;;;;;;6278063;22;19981;-72
2022/06/14 00:05:31;;;;;;;;;;;;;;;;;;6251917;22;19937;-72
2022/06/14 00:07:58;;;;;;;;;;;;;;;;;;6278325;22;19915;-73
2022/06/14 00:10:25;;;;;;;;;;;;;;;;;;6277932;22;19938;-72
2022/06/14 00:12:53;;;;;;;;;;;;;;;;;;6278362;22;19986;-72
2022/06/14 00:15:20;;;;;;;;;;;;;;;;;;6278036;22;19915;-72
2022/06/14 00:17:47;;;;;;;;;;;;;;;;;;6277925;22;19923;-72
2022/06/14 00:20:15;;;;;;;;;;;;;;;;;;6250875;22;20337;-72
2022/06/14 00:22:42;;;;;;;;;;;;;;;;;;6277780;22;19922;-72
2022/06/14 00:25:09;;;;;;;;;;;;;;;;;;6250608;22;19915;-72
2022/06/14 00:27:37;;;;;;;;;;;;;;;;;;6277913;22;19915;-72
2022/06/14 00:30:04;;;;;;;;;;;;;;;;;;6251100;22;19915;-71
2022/06/14 00:32:31;;;;;;;;;;;;;;;;;;6277736;22;19921;-71
2022/06/14 00:34:59;;;;;;;;;;;;;;;;;;6277781;22;19915;-71
2022/06/14 00:37:26;;;;;;;;;;;;;;;;;;6278071;22;19915;-71
2022/06/14 00:39:53;;;;;;;;;;;;;;;;;;6277537;22;19922;-71
2022/06/14 00:42:21;;;;;;;;;;;;;;;;;;6277692;22;19915;-71
2022/06/14 00:44:48;;;;;;;;;;;;;;;;;;6278043;22;19923;-71
2022/06/14 00:47:15;;;;;;;;;;;;;;;;;;6277528;22;20238;-71
2022/06/14 00:49:43;;;;;;;;;;;;;;;;;;6277681;22;19915;-71
2022/06/14 00:52:10;;;;;;;;;;;;;;;;;;6277379;22;19915;-71
2022/06/14 00:54:38;;;;;;;;;;;;;;;;;;6277344;22;19973;-71
2022/06/14 00:57:05;;;;;;;;;;;;;;;;;;6277579;22;19915;-71
2022/06/14 00:59:33;;;;;;;;;;;;;;;;;;6277487;22;21356;-71
2022/06/14 01:02:00;;;;;;;;;;;;;;;;;;6277567;22;19993;-71
2022/06/14 01:04:27;;;;;;;;;;;;;;;;;;6277658;22;20232;-71
2022/06/14 01:06:55;;;;;;;;;;;;;;;;;;6277986;22;19923;-71
2022/06/14 01:09:22;;;;;;;;;;;;;;;;;;6277427;22;19915;-71
2022/06/14 01:11:50;;;;;;;;;;;;;;;;;;6277304;22;19990;-72
2022/06/14 01:14:17;;;;;;;;;;;;;;;;;;6277432;22;19915;-71
2022/06/14 01:16:44;;;;;;;;;;;;;;;;;;6277346;22;19915;-71
2022/06/14 01:19:12;;;;;;;;;;;;;;;;;;6277450;22;19922;-71
2022/06/14 01:21:39;;;;;;;;;;;;;;;;;;6277718;22;19919;-71
2022/06/14 01:24:06;;;;;;;;;;;;;;;;;;6277282;22;20318;-71
2022/06/14 01:26:34;;;;;;;;;;;;;;;;;;6277388;22;20371;-71
2022/06/14 01:29:01;;;;;;;;;;;;;;;;;;6250179;22;20341;-72
2022/06/14 01:31:29;;;;;;;;;;;;;;;;;;6277516;22;19990;-71
2022/06/14 01:33:56;;;;;;;;;;;;;;;;;;6277260;22;19915;-71
2022/06/14 01:36:23;;;;;;;;;;;;;;;;;;6250225;22;19919;-71
2022/06/14 01:38:51;;;;;;;;;;;;;;;;;;6277603;22;19915;-71
2022/06/14 01:41:18;;;;;;;;;;;;;;;;;;6277594;22;19974;-71
2022/06/14 01:43:45;;;;;;;;;;;;;;;;;;6277426;22;19922;-71
2022/06/14 01:46:15;;;;;;;;;;;;;;;;;;6277104;22;19915;-72
2022/06/14 01:48:43;;;;;;;;;;;;;;;;;;6277462;22;20237;-72
2022/06/14 01:53:56;;;;;;;;;;;;;;;;;;6249745;22;20254;-72
2022/06/14 01:56:24;;;;;;;;;;;;;;;;;;6277161;22;19915;-73
2022/06/14 01:58:51;;;;;;;;;;;;;;;;;;6276963;22;19918;-72
2022/06/14 02:01:18;;;;;;;;;;;;;;;;;;6276828;22;19919;-74
2022/06/14 02:06:32;;;;;;;;;;;;;;;;;;6276876;22;19915;-72
2022/06/14 02:08:59;;;;;;;;;;;;;;;;;;6276835;22;19915;-72
2022/06/14 02:11:26;;;;;;;;;;;;;;;;;;6277154;22;20210;-72
2022/06/14 02:13:54;;;;;;;;;;;;;;;;;;6276681;22;19961;-72
2022/06/14 02:16:21;;;;;;;;;;;;;;;;;;6277062;22;19977;-73
2022/06/14 02:18:48;;;;;;;;;;;;;;;;;;6277123;22;19922;-73
2022/06/14 02:21:16;;;;;;;;;;;;;;;;;;6276581;22;19916;-73
2022/06/14 02:23:43;;;;;;;;;;;;;;;;;;6276748;22;19915;-73
2022/06/14 02:26:10;;;;;;;;;;;;;;;;;;6276700;22;19949;-73
2022/06/14 02:28:38;;;;;;;;;;;;;;;;;;6276983;22;19919;-73
2022/06/14 02:31:05;;;;;;;;;;;;;;;;;;6276993;22;19915;-73
2022/06/14 02:33:32;;;;;;;;;;;;;;;;;;6276707;22;20314;-73
2022/06/14 02:36:00;;;;;;;;;;;;;;;;;;6276650;22;19990;-73
2022/06/14 02:38:28;;;;;;;;;;;;;;;;;;6276840;22;19922;-73
2022/06/14 02:40:55;;;;;;;;;;;;;;;;;;6276765;22;19915;-73
2022/06/14 02:43:22;;;;;;;;;;;;;;;;;;6276687;22;20349;-73
2022/06/14 02:45:50;;;;;;;;;;;;;;;;;;6249510;22;19946;-74
2022/06/14 02:48:17;;;;;;;;;;;;;;;;;;6276946;22;20284;-72
2022/06/14 02:50:44;;;;;;;;;;;;;;;;;;6276505;22;19915;-72
2022/06/14 02:53:14;;;;;;;;;;;;;;;;;;6276415;22;19915;-72
2022/06/14 02:55:43;;;;;;;;;;;;;;;;;;6276505;22;19915;-74
2022/06/14 02:58:10;;;;;;;;;;;;;;;;;;6276273;22;19915;-73
2022/06/14 03:00:37;;;;;;;;;;;;;;;;;;6276550;22;19915;-73
2022/06/14 03:03:06;;;;;;;;;;;;;;;;;;6276470;22;19919;-73
2022/06/14 03:05:34;;;;;;;;;;;;;;;;;;6276343;22;19950;-73
2022/06/14 03:08:01;;;;;;;;;;;;;;;;;;6276536;22;19993;-73
2022/06/14 03:10:28;;;;;;;;;;;;;;;;;;6276335;22;19919;-74
2022/06/14 03:12:56;;;;;;;;;;;;;;;;;;6276547;22;19947;-73
2022/06/14 03:15:23;;;;;;;;;;;;;;;;;;6276311;22;19938;-73
2022/06/14 03:17:50;;;;;;;;;;;;;;;;;;6276830;22;19915;-73
2022/06/14 03:20:18;;;;;;;;;;;;;;;;;;6276269;22;20310;-73
2022/06/14 03:22:45;;;;;;;;;;;;;;;;;;6276337;22;20522;-73
2022/06/14 03:25:12;;;;;;;;;;;;;;;;;;6276515;22;19926;-73
2022/06/14 03:27:40;;;;;;;;;;;;;;;;;;6276603;22;19919;-73
2022/06/14 03:30:07;;;;;;;;;;;;;;;;;;6276109;22;19938;-73
2022/06/14 03:32:34;;;;;;;;;;;;;;;;;;6276143;22;20369;-74
2022/06/14 03:35:02;;;;;;;;;;;;;;;;;;6276434;22;19981;-74
2022/06/14 03:37:32;;;;;;;;;;;;;;;;;;6276370;22;19989;-72
2022/06/14 03:39:59;;;;;;;;;;;;;;;;;;6276077;22;19915;-72
2022/06/14 03:42:27;;;;;;;;;;;;;;;;;;6276409;22;19916;-72
2022/06/14 03:44:54;;;;;;;;;;;;;;;;;;6274703;22;19922;-72
2022/06/14 03:47:21;;;;;;;;;;;;;;;;;;6274441;22;19915;-74
2022/06/14 03:49:49;;;;;;;;;;;;;;;;;;6276601;22;19915;-73
2022/06/14 03:52:16;;;;;;;;;;;;;;;;;;6276106;22;20378;-74
2022/06/14 03:54:43;;;;;;;;;;;;;;;;;;6275329;22;19915;-74
2022/06/14 03:57:11;;;;;;;;;;;;;;;;;;6275719;22;19990;-74
2022/06/14 03:59:38;;;;;;;;;;;;;;;;;;6275957;22;19972;-72
2022/06/14 04:02:06;;;;;;;;;;;;;;;;;;6276072;22;19915;-72
2022/06/14 04:04:34;;;;;;;;;;;;;;;;;;6276022;22;20002;-72
2022/06/14 04:07:01;;;;;;;;;;;;;;;;;;6275731;22;19941;-72
2022/06/14 04:09:28;;;;;;;;;;;;;;;;;;6276020;22;19915;-73
2022/06/14 04:11:56;;;;;;;;;;;;;;;;;;6276047;22;19950;-73
2022/06/14 04:14:23;;;;;;;;;;;;;;;;;;6276040;22;19915;-73
2022/06/14 04:16:50;;;;;;;;;;;;;;;;;;6276048;22;19966;-71
2022/06/14 04:19:18;;;;;;;;;;;;;;;;;;6275844;22;20385;-72
2022/06/14 04:21:45;;;;;;;;;;;;;;;;;;6276083;22;19915;-72
2022/06/14 04:24:12;;;;;;;;;;;;;;;;;;6275931;22;19969;-72
2022/06/14 04:26:40;;;;;;;;;;;;;;;;;;6275580;22;20018;-72
2022/06/14 04:29:07;;;;;;;;;;;;;;;;;;6276597;22;19915;-72
2022/06/14 04:31:34;;;;;;;;;;;;;;;;;;6274879;22;20159;-73
2022/06/14 04:34:02;;;;;;;;;;;;;;;;;;6276542;22;19966;-72
2022/06/14 04:36:29;;;;;;;;;;;;;;;;;;6277422;22;19915;-72
2022/06/14 04:38:57;;;;;;;;;;;;;;;;;;6277532;22;19915;-73
2022/06/14 04:41:24;;;;;;;;;;;;;;;;;;6277614;22;20241;-72
2022/06/14 04:43:51;;;;;;;;;;;;;;;;;;6250673;22;19943;-72
2022/06/14 04:46:19;;;;;;;;;;;;;;;;;;6276287;22;20301;-73
2022/06/14 04:48:46;;;;;;;;;;;;;;;;;;6250017;22;20497;-73
2022/06/14 04:51:13;;;;;;;;;;;;;;;;;;6276966;22;20345;-72
2022/06/14 04:53:41;;;;;;;;;;;;;;;;;;6277068;22;19997;-71
2022/06/14 04:56:08;;;;;;;;;;;;;;;;;;6277187;22;20305;-72
2022/06/14 04:58:36;;;;;;;;;;;;;;;;;;6277479;22;19915;-72
2022/06/14 05:01:07;;;;;;;;;;;;;;;;;;6277620;22;19915;-72
2022/06/14 05:03:34;;;;;;;;;;;;;;;;;;6278149;22;19915;-72
2022/06/14 05:06:02;;;;;;;;;;;;;;;;;;6277341;22;19965;-72
2022/06/14 05:08:29;;;;;;;;;;;;;;;;;;6277500;22;19965;-72
2022/06/14 05:10:56;;;;;;;;;;;;;;;;;;6277563;22;19915;-72
2022/06/14 05:13:24;;;;;;;;;;;;;;;;;;6277417;22;19938;-72
2022/06/14 05:15:51;;;;;;;;;;;;;;;;;;6251023;22;19961;-72
2022/06/14 05:18:18;;;;;;;;;;;;;;;;;;6277620;22;19989;-72
2022/06/14 05:20:46;;;;;;;;;;;;;;;;;;6277599;22;19922;-73
2022/06/14 05:23:14;;;;;;;;;;;;;;;;;;6277575;22;19915;-72
2022/06/14 05:25:41;;;;;;;;;;;;;;;;;;6277275;22;19915;-73
2022/06/14 05:28:14;;;;;;;;;;;;;;;;;;6277395;22;19961;-72
2022/06/14 05:30:41;;;;;;;;;;;;;;;;;;6277248;22;19961;-73
2022/06/14 05:33:09;;;;;;;;;;;;;;;;;;6277360;22;19915;-73
2022/06/14 05:35:37;;;;;;;;;;;;;;;;;;6277266;22;20354;-73
2022/06/14 05:38:04;;;;;;;;;;;;;;;;;;6277178;22;20211;-73
2022/06/14 05:40:31;;;;;;;;;;;;;;;;;;6276817;22;20276;-73
2022/06/14 05:42:59;;;;;;;;;;;;;;;;;;6277117;22;19994;-73
2022/06/14 05:45:26;;;;;;;;;;;;;;;;;;6277430;22;19915;-74
2022/06/14 05:47:54;;;;;;;;;;;;;;;;;;6277063;22;20248;-73
2022/06/14 05:50:22;;;;;;;;;;;;;;;;;;6277265;22;19919;-73
2022/06/14 05:52:50;;;;;;;;;;;;;;;;;;6277334;22;19951;-73
2022/06/14 05:55:17;;;;;;;;;;;;;;;;;;6277013;22;19919;-74
2022/06/14 05:57:44;;;;;;;;;;;;;;;;;;6277422;22;19915;-74
2022/06/14 06:00:12;;;;;;;;;;;;;;;;;;6276905;22;19915;-73
2022/06/14 06:02:39;;;;;;;;;;;;;;;;;;6277146;22;19916;-73
2022/06/14 06:05:07;;;;;;;;;;;;;;;;;;6276797;22;19919;-74
2022/06/14 06:07:34;;;;;;;;;;;;;;;;;;6276905;22;19957;-74
2022/06/14 06:10:01;;;;;;;;;;;;;;;;;;6276951;22;19919;-74
2022/06/14 06:12:29;;;;;;;;;;;;;;;;;;6276813;22;19915;-73
2022/06/14 06:14:56;;;;;;;;;;;;;;;;;;6277230;22;19961;-73
2022/06/14 06:17:26;;;;;;;;;;;;;;;;;;6277111;22;19915;-73
2022/06/14 06:19:53;;;;;;;;;;;;;;;;;;6277065;22;19922;-73
2022/06/14 06:22:20;;;;;;;;;;;;;;;;;;6276747;22;19915;-73
2022/06/14 06:24:48;;;;;;;;;;;;;;;;;;6276876;22;19922;-73
2022/06/14 06:27:17;;;;;;;;;;;;;;;;;;6276689;22;20345;-73
2022/06/14 06:29:44;;;;;;;;;;;;;;;;;;6276725;22;19922;-73
2022/06/14 06:32:11;;;;;;;;;;;;;;;;;;6250156;22;19969;-73
2022/06/14 06:34:39;;;;;;;;;;;;;;;;;;6276546;22;20283;-73
2022/06/14 06:37:06;;;;;;;;;;;;;;;;;;6276406;22;19943;-73
2022/06/14 06:39:35;;;;;;;;;;;;;;;;;;6276680;22;19923;-73
2022/06/14 06:42:02;;;;;;;;;;;;;;;;;;6277400;22;19950;-72
2022/06/14 06:44:32;;;;;;;;;;;;;;;;;;6249364;22;19915;-72
2022/06/14 06:46:59;;;;;;;;;;;;;;;;;;6249394;22;19922;-73
2022/06/14 06:49:29;;;;;;;;;;;;;;;;;;6276656;22;19976;-72
2022/06/14 06:52:00;;;;;;;;;;;;;;;;;;6276334;22;19915;-72
2022/06/14 06:54:27;;;;;;;;;;;;;;;;;;6276406;22;19915;-72
2022/06/14 06:56:55;;;;;;;;;;;;;;;;;;6276483;22;19945;-72
2022/06/14 06:59:22;;;;;;;;;;;;;;;;;;6249698;22;19919;-72
2022/06/14 07:01:49;;;;;;;;;;;;;;;;;;6276540;22;19939;-72
2022/06/14 07:04:17;;;;;;;;;;;;;;;;;;6276420;22;19969;-72
2022/06/14 07:06:44;;;;;;;;;;;;;;;;;;6276312;22;19998;-72
2022/06/14 07:09:11;;;;;;;;;;;;;;;;;;6276690;22;19990;-72
2022/06/14 07:11:39;;;;;;;;;;;;;;;;;;6276980;22;19922;-72
2022/06/14 07:14:06;;;;;;;;;;;;;;;;;;6276415;22;19969;-72
2022/06/14 07:16:33;;;;;;;;;;;;;;;;;;6276438;22;19977;-72
2022/06/14 07:19:00;;;;;;;;;;;;;;;;;;6276336;22;19998;-72
2022/06/14 07:21:28;;;;;;;;;;;;;;;;;;6249608;22;19915;-72
2022/06/14 07:23:55;;;;;;;;;;;;;;;;;;6276407;22;20242;-72
2022/06/14 07:26:23;;;;;;;;;;;;;;;;;;6276320;22;20326;-72
2022/06/14 07:28:54;;;;;;;;;;;;;;;;;;6276791;22;19915;-72
2022/06/14 07:31:21;;;;;;;;;;;;;;;;;;6276225;22;19998;-72
2022/06/14 07:33:49;;;;;;;;;;;;;;;;;;6249116;22;19915;-72
2022/06/14 07:36:16;;;;;;;;;;;;;;;;;;6276547;22;20014;-72
2022/06/14 07:38:43;;;;;;;;;;;;;;;;;;6276287;22;20249;-72
2022/06/14 07:41:11;;;;;;;;;;;;;;;;;;6276285;22;19945;-72
2022/06/14 07:43:38;;;;;;;;;;;;;;;;;;6276280;22;19919;-72
2022/06/14 07:46:05;;;;;;;;;;;;;;;;;;6276091;22;19985;-72
2022/06/14 07:48:33;;;;;;;;;;;;;;;;;;6276131;22;19915;-72
2022/06/14 07:51:00;;;;;;;;;;;;;;;;;;6276304;22;19938;-72
2022/06/14 07:53:27;;;;;;;;;;;;;;;;;;6276201;22;19993;-72
2022/06/14 07:55:55;;;;;;;;;;;;;;;;;;6276038;22;19915;-72
2022/06/14 07:58:22;;;;;;;;;;;;;;;;;;6276581;22;19939;-72
2022/06/14 08:01:08;;;;;;;;;;;;;;;;;;6275990;22;19915;-72
2022/06/14 08:03:37;;;;;;;;;;;;;;;;;;6277739;22;20341;-72
2022/06/14 08:06:04;;;;;;;;;;;;;;;;;;6278350;22;20413;-72
2022/06/14 08:08:31;;;;;;;;;;;;;;;;;;6278023;22;19961;-72
2022/06/14 08:10:59;;;;;;;;;;;;;;;;;;6278081;22;19946;-72
2022/06/14 08:13:26;;;;;;;;;;;;;;;;;;6278142;22;19966;-72
2022/06/14 08:15:55;;;;;;;;;;;;;;;;;;6277858;22;19922;-72
2022/06/14 08:18:23;;;;;;;;;;;;;;;;;;6251145;22;19990;-73
2022/06/14 08:20:50;;;;;;;;;;;;;;;;;;6277968;22;19915;-73
2022/06/14 08:23:18;;;;;;;;;;;;;;;;;;6277883;22;19945;-73
2022/06/14 08:25:45;;;;;;;;;;;;;;;;;;6277721;22;19922;-73
2022/06/14 08:28:12;;;;;;;;;;;;;;;;;;6277834;22;19918;-73
2022/06/14 08:30:40;;;;;;;;;;;;;;;;;;6277876;22;19915;-74
2022/06/14 08:33:07;;;;;;;;;;;;;;;;;;6277921;22;19915;-73
2022/06/14 08:35:35;;;;;;;;;;;;;;;;;;6277791;22;19919;-74
2022/06/14 08:38:02;;;;;;;;;;;;;;;;;;6278119;22;19923;-74
2022/06/14 08:40:29;;;;;;;;;;;;;;;;;;6278087;22;19915;-74
2022/06/14 08:42:57;;;;;;;;;;;;;;;;;;6277708;22;19915;-74
2022/06/14 08:45:24;;;;;;;;;;;;;;;;;;6277536;22;20321;-74
2022/06/14 08:47:52;;;;;;;;;;;;;;;;;;6277645;22;19915;-73
2022/06/14 08:50:20;;;;;;;;;;;;;;;;;;6278091;22;19915;-73
2022/06/14 08:52:47;;;;;;;;;;;;;;;;;;6277756;22;19916;-73
2022/06/14 08:55:14;;;;;;;;;;;;;;;;;;6277889;22;19922;-73
2022/06/14 08:57:42;;;;;;;;;;;;;;;;;;6277908;22;19938;-73
2022/06/14 09:00:11;;;;;;;;;;;;;;;;;;6277270;22;19946;-73
2022/06/14 09:02:38;;;;;;;;;;;;;;;;;;6250196;22;19922;-73
2022/06/14 09:05:05;;;;;;;;;;;;;;;;;;6250199;22;19919;-73
2022/06/14 09:07:35;;;;;;;;;;;;;;;;;;6277542;22;19919;-73
2022/06/14 09:10:02;;;;;;;;;;;;;;;;;;6277671;22;19925;-73
2022/06/14 09:12:30;;;;;;;;;;;;;;;;;;6277199;22;19922;-73
2022/06/14 09:14:57;;;;;;;;;;;;;;;;;;6276884;22;19916;-73
2022/06/14 09:17:24;;;;;;;;;;;;;;;;;;6250549;22;19922;-73
2022/06/14 09:20:10;;;;;;;;;;;;;;;;;;6277752;22;19916;-74
2022/06/14 09:22:38;;;;;;;;;;;;;;;;;;6277662;22;19988;-75
2022/06/14 09:25:21;;;;;;;;;;;;;;;;;;6277584;22;19919;-73
2022/06/14 09:27:48;;;;;;;;;;;;;;;;;;6277372;22;19915;-73
2022/06/14 09:30:16;;;;;;;;;;;;;;;;;;6277616;22;20245;-73
2022/06/14 09:35:29;;;;;;;;;;;;;;;;;;6277274;22;19993;-73
2022/06/14 09:37:56;;;;;;;;;;;;;;;;;;6277280;22;20330;-73
2022/06/14 09:40:24;;;;;;;;;;;;;;;;;;6277060;22;19915;-73
2022/06/14 09:42:51;;;;;;;;;;;;;;;;;;6277314;22;19922;-73
2022/06/14 09:45:19;;;;;;;;;;;;;;;;;;6277069;22;19916;-73
2022/06/14 09:47:46;;;;;;;;;;;;;;;;;;6277163;22;19922;-73
2022/06/14 09:50:13;;;;;;;;;;;;;;;;;;6250263;22;19919;-72
2022/06/14 09:52:41;;;;;;;;;;;;;;;;;;6277113;22;19997;-72
2022/06/14 09:55:09;;;;;;;;;;;;;;;;;;6277014;22;20318;-73
2022/06/14 09:57:36;;;;;;;;;;;;;;;;;;6277037;22;20299;-73
2022/06/14 10:00:04;;;;;;;;;;;;;;;;;;6276750;22;19919;-73
2022/06/14 10:02:31;;;;;;;;;;;;;;;;;;6250542;22;20314;-74
2022/06/14 10:04:59;;;;;;;;;;;;;;;;;;6276674;22;19951;-74
2022/06/14 10:07:26;;;;;;;;;;;;;;;;;;6277293;22;20242;-73
2022/06/14 10:09:54;;;;;;;;;;;;;;;;;;6276930;22;19919;-74
2022/06/14 10:12:22;;;;;;;;;;;;;;;;;;6276788;22;19915;-74
2022/06/14 10:14:49;;;;;;;;;;;;;;;;;;6276891;22;19961;-73
2022/06/14 10:17:17;;;;;;;;;;;;;;;;;;6276755;22;20381;-73
2022/06/14 10:19:44;;;;;;;;;;;;;;;;;;6276812;22;19926;-73
2022/06/14 10:22:11;;;;;;;;;;;;;;;;;;6276686;22;20245;-73
2022/06/14 10:24:39;;;;;;;;;;;;;;;;;;6276810;22;19943;-73
2022/06/14 10:29:52;;;;;;;;;;;;;;;;;;6276706;22;19918;-74
2022/06/14 10:32:19;;;;;;;;;;;;;;;;;;6276684;22;19916;-73
2022/06/14 10:34:47;;;;;;;;;;;;;;;;;;6276989;22;20244;-73
2022/06/14 10:37:14;;;;;;;;;;;;;;;;;;6276689;22;19919;-73
2022/06/14 10:39:47;;;;;;;;;;;;;;;;;;6276681;22;19943;-73
2022/06/14 10:42:14;;;;;;;;;;;;;;;;;;6276787;22;19923;-73
2022/06/14 10:44:42;;;;;;;;;;;;;;;;;;6276768;22;20033;-73
2022/06/14 10:47:09;;;;;;;;;;;;;;;;;;6249653;22;19991;-73
2022/06/14 10:49:37;;;;;;;;;;;;;;;;;;6276322;22;19919;-72
2022/06/14 10:52:04;;;;;;;;;;;;;;;;;;6276644;22;19919;-73
2022/06/14 10:54:32;;;;;;;;;;;;;;;;;;6276734;22;19982;-73
2022/06/14 10:56:59;;;;;;;;;;;;;;;;;;6276251;22;19915;-72
2022/06/14 10:59:27;;;;;;;;;;;;;;;;;;6276405;22;19991;-73
2022/06/14 11:01:54;;;;;;;;;;;;;;;;;;6276814;22;19920;-73
2022/06/14 11:04:21;;;;;;;;;;;;;;;;;;6249192;22;19915;-72
2022/06/14 11:06:49;;;;;;;;;;;;;;;;;;6276201;22;19957;-72
2022/06/14 11:09:18;;;;;;;;;;;;;;;;;;6276171;22;19922;-72
2022/06/14 11:11:45;;;;;;;;;;;;;;;;;;6276450;22;19994;-72
2022/06/14 11:14:13;;;;;;;;;;;;;;;;;;6276263;22;20266;-71
2022/06/14 11:16:41;;;;;;;;;;;;;;;;;;6276394;22;19919;-72
2022/06/14 11:19:25;;;;;;;;;;;;;;;;;;6276200;22;19962;-72
2022/06/14 11:21:52;;;;;;;;;;;;;;;;;;6276164;22;20305;-72
2022/06/14 11:24:20;;;;;;;;;;;;;;;;;;6276162;22;19915;-72
2022/06/14 11:26:47;;;;;;;;;;;;;;;;;;6275914;22;19915;-72
2022/06/14 11:29:15;;;;;;;;;;;;;;;;;;6276645;22;20345;-72
2022/06/14 11:31:42;;;;;;;;;;;;;;;;;;6276024;22;19938;-73
2022/06/14 11:34:09;;;;;;;;;;;;;;;;;;6275293;22;19923;-73
2022/06/14 11:36:37;;;;;;;;;;;;;;;;;;6274112;22;20018;-72
2022/06/14 11:39:04;;;;;;;;;;;;;;;;;;6276776;22;19919;-72
2022/06/14 11:41:34;;;;;;;;;;;;;;;;;;6277572;22;19915;-72
2022/06/14 11:44:01;;;;;;;;;;;;;;;;;;6277803;22;19915;-72
2022/06/14 11:46:28;;;;;;;;;;;;;;;;;;6276101;22;19961;-73
2022/06/14 11:48:56;;;;;;;;;;;;;;;;;;6276588;22;19915;-72
2022/06/14 11:51:24;;;;;;;;;;;;;;;;;;6277718;22;19966;-72
2022/06/14 11:53:51;;;;;;;;;;;;;;;;;;6278146;22;19922;-72
2022/06/14 11:56:18;;;;;;;;;;;;;;;;;;6276654;22;20038;-72
2022/06/14 11:58:50;;;;;;;;;;;;;;;;;;6277660;22;19960;-73
2022/06/14 12:01:17;;;;;;;;;;;;;;;;;;6276990;22;19915;-72
2022/06/14 12:03:45;;;;;;;;;;;;;;;;;;6277329;22;20317;-73
2022/06/14 12:06:12;;;;;;;;;;;;;;;;;;6277820;22;19966;-73
2022/06/14 12:08:40;;;;;;;;;;;;;;;;;;6250111;22;19923;-73
2022/06/14 12:11:08;;;;;;;;;;;;;;;;;;6277650;22;19915;-73
2022/06/14 12:13:35;;;;;;;;;;;;;;;;;;6277485;22;20223;-73
2022/06/14 12:16:03;;;;;;;;;;;;;;;;;;6277591;22;19915;-73
2022/06/14 12:18:30;;;;;;;;;;;;;;;;;;6277685;22;19938;-73
2022/06/14 12:21:17;;;;;;;;;;;;;;;;;;6277487;22;19969;-73
2022/06/14 12:23:45;;;;;;;;;;;;;;;;;;6250984;22;20240;-72
2022/06/14 12:28:58;;;;;;;;;;;;;;;;;;6277810;22;19919;-72
2022/06/14 12:31:26;;;;;;;;;;;;;;;;;;6277386;22;20329;-72
2022/06/14 12:33:53;;;;;;;;;;;;;;;;;;6277479;22;19915;-73
2022/06/14 12:36:21;;;;;;;;;;;;;;;;;;6277361;22;19919;-73
2022/06/14 12:38:48;;;;;;;;;;;;;;;;;;6277501;22;19919;-73
2022/06/14 12:41:15;;;;;;;;;;;;;;;;;;6277323;22;20239;-73
2022/06/14 12:43:43;;;;;;;;;;;;;;;;;;6277537;22;20478;-73
2022/06/14 12:46:10;;;;;;;;;;;;;;;;;;6277265;22;19916;-72
2022/06/14 12:48:38;;;;;;;;;;;;;;;;;;6277091;22;19938;-72
2022/06/14 12:51:05;;;;;;;;;;;;;;;;;;6277319;22;19922;-72
2022/06/14 12:53:32;;;;;;;;;;;;;;;;;;6277344;22;19915;-72
2022/06/14 12:56:00;;;;;;;;;;;;;;;;;;6277334;22;19915;-73
2022/06/14 12:58:27;;;;;;;;;;;;;;;;;;6277156;22;19915;-73
2022/06/14 13:00:54;;;;;;;;;;;;;;;;;;6277058;22;19922;-75
2022/06/14 13:03:22;;;;;;;;;;;;;;;;;;6277607;22;19921;-74
2022/06/14 13:05:49;;;;;;;;;;;;;;;;;;6276920;22;20033;-74
2022/06/14 13:08:17;;;;;;;;;;;;;;;;;;6277236;22;19969;-74
2022/06/14 13:10:44;;;;;;;;;;;;;;;;;;6277408;22;19915;-74
2022/06/14 13:13:11;;;;;;;;;;;;;;;;;;6277373;22;20250;-74
2022/06/14 13:15:39;;;;;;;;;;;;;;;;;;6277050;22;19921;-73
2022/06/14 13:18:06;;;;;;;;;;;;;;;;;;6277264;22;19922;-72
2022/06/14 13:20:34;;;;;;;;;;;;;;;;;;6276919;22;20330;-74
2022/06/14 13:23:01;;;;;;;;;;;;;;;;;;6276855;22;20010;-74
2022/06/14 13:25:28;;;;;;;;;;;;;;;;;;6276956;22;19950;-74
2022/06/14 13:27:56;;;;;;;;;;;;;;;;;;6276924;22;20214;-72
2022/06/14 13:30:25;;;;;;;;;;;;;;;;;;6250684;22;19951;-73
2022/06/14 13:32:52;;;;;;;;;;;;;;;;;;6277288;22;19915;-73
2022/06/14 13:35:20;;;;;;;;;;;;;;;;;;6276890;22;19943;-74
2022/06/14 13:37:47;;;;;;;;;;;;;;;;;;6276836;22;19989;-72
2022/06/14 13:40:14;;;;;;;;;;;;;;;;;;6276866;22;19926;-74
2022/06/14 13:42:42;;;;;;;;;;;;;;;;;;6275839;22;19922;-73
2022/06/14 13:45:09;;;;;;;;;;;;;;;;;;6276695;22;19915;-74
2022/06/14 13:47:37;;;;;;;;;;;;;;;;;;6277457;22;19922;-74
2022/06/14 13:50:04;;;;;;;;;;;;;;;;;;6277132;22;19915;-72
2022/06/14 13:52:32;;;;;;;;;;;;;;;;;;6276815;22;19922;-75
2022/06/14 13:54:59;;;;;;;;;;;;;;;;;;6276762;22;19922;-73
2022/06/14 13:57:28;;;;;;;;;;;;;;;;;;6276610;22;19915;-73
2022/06/14 13:59:55;;;;;;;;;;;;;;;;;;6276169;22;19916;-73
2022/06/14 14:02:22;;;;;;;;;;;;;;;;;;6276651;22;20269;-73
2022/06/14 14:04:50;;;;;;;;;;;;;;;;;;6276656;22;19915;-73
2022/06/14 14:07:17;;;;;;;;;;;;;;;;;;6276319;22;19915;-74
2022/06/14 14:09:45;;;;;;;;;;;;;;;;;;6249065;22;19927;-74
2022/06/14 14:12:12;;;;;;;;;;;;;;;;;;6276464;22;20270;-73
2022/06/14 14:14:39;;;;;;;;;;;;;;;;;;6276409;22;19926;-73
2022/06/14 14:17:07;;;;;;;;;;;;;;;;;;6276493;22;19946;-72
2022/06/14 14:19:34;;;;;;;;;;;;;;;;;;6276597;22;20276;-72
2022/06/14 14:22:01;;;;;;;;;;;;;;;;;;6276521;22;19969;-72
2022/06/14 14:24:29;;;;;;;;;;;;;;;;;;6276232;22;19918;-73
2022/06/14 14:26:56;;;;;;;;;;;;;;;;;;6276114;22;19916;-71
2022/06/14 14:29:24;;;;;;;;;;;;;;;;;;6276480;22;19953;-72
2022/06/14 14:31:51;;;;;;;;;;;;;;;;;;6276152;22;20282;-72
2022/06/14 14:34:18;;;;;;;;;;;;;;;;;;6276238;22;19915;-73
2022/06/14 14:36:46;;;;;;;;;;;;;;;;;;6276304;22;19994;-74
2022/06/14 14:39:13;;;;;;;;;;;;;;;;;;6276207;22;19915;-73
2022/06/14 14:41:42;;;;;;;;;;;;;;;;;;6276146;22;19922;-74
2022/06/14 14:44:10;;;;;;;;;;;;;;;;;;6275840;22;19947;-73
2022/06/14 14:46:37;;;;;;;;;;;;;;;;;;6276174;22;20283;-74
2022/06/14 14:49:05;;;;;;;;;;;;;;;;;;6276988;22;19925;-73
2022/06/14 14:51:32;;;;;;;;;;;;;;;;;;6276289;22;19919;-73
2022/06/14 14:54:00;;;;;;;;;;;;;;;;;;6276244;22;19943;-72
2022/06/14 14:56:27;;;;;;;;;;;;;;;;;;6276303;22;20043;-73
2022/06/14 14:58:54;;;;;;;;;;;;;;;;;;6276551;22;19915;-73
2022/06/14 15:06:54;;;;;;;;;;;;;;;;;;6276299;22;19982;-73
2022/06/14 15:09:21;;;;;;;;;;;;;;;;;;6276092;22;19919;-75
2022/06/14 15:11:49;;;;;;;;;;;;;;;;;;6275483;22;19969;-73
2022/06/14 15:14:16;;;;;;;;;;;;;;;;;;6248458;22;19915;-76
2022/06/14 15:16:44;;;;;;;;;;;;;;;;;;6275786;22;19915;-77
2022/06/14 15:22:02;;;;;;;;;;;;;;;;;;6275857;22;20245;-76
2022/06/14 15:24:30;;;;;;;;;;;;;;;;;;6275879;22;20226;-75
2022/06/14 15:26:58;;;;;;;;;;;;;;;;;;6275284;22;19916;-77
2022/06/14 15:29:25;;;;;;;;;;;;;;;;;;6275121;22;19923;-75
2022/06/14 15:31:54;;;;;;;;;;;;;;;;;;6275762;22;19915;-73
2022/06/14 15:34:21;;;;;;;;;;;;;;;;;;6276091;22;19915;-74
2022/06/14 15:36:49;;;;;;;;;;;;;;;;;;6275376;22;20284;-76
2022/06/14 15:39:16;;;;;;;;;;;;;;;;;;6275857;22;20019;-72
2022/06/14 15:41:43;;;;;;;;;;;;;;;;;;6275820;22;19915;-72
2022/06/14 15:44:11;;;;;;;;;;;;;;;;;;6276143;22;19922;-74
2022/06/14 15:46:38;;;;;;;;;;;;;;;;;;6275474;22;20514;-73
2022/06/14 15:49:06;;;;;;;;;;;;;;;;;;6248983;22;19915;-70
2022/06/14 15:51:33;;;;;;;;;;;;;;;;;;6274640;22;20293;-73
2022/06/14 15:54:01;;;;;;;;;;;;;;;;;;6274682;22;20342;-73
2022/06/14 15:56:28;;;;;;;;;;;;;;;;;;6248495;22;19915;-74
2022/06/14 15:58:56;;;;;;;;;;;;;;;;;;6274763;22;19919;-72
2022/06/14 16:01:24;;;;;;;;;;;;;;;;;;6275162;22;19973;-74
2022/06/14 16:03:51;;;;;;;;;;;;;;;;;;6275340;22;19982;-77
2022/06/14 16:06:19;;;;;;;;;;;;;;;;;;6275645;22;19938;-73
2022/06/14 16:08:46;;;;;;;;;;;;;;;;;;6275534;22;19997;-71
2022/06/14 16:11:13;;;;;;;;;;;;;;;;;;6275855;22;19915;-72
2022/06/14 16:13:41;;;;;;;;;;;;;;;;;;6275440;22;20292;-72
2022/06/14 16:16:08;;;;;;;;;;;;;;;;;;6275664;22;19915;-72
2022/06/14 16:18:39;;;;;;;;;;;;;;;;;;6275497;22;19951;-71
2022/06/14 16:21:07;;;;;;;;;;;;;;;;;;6275281;22;19915;-72
2022/06/14 16:23:35;;;;;;;;;;;;;;;;;;6276001;22;19922;-72
2022/06/14 16:26:02;;;;;;;;;;;;;;;;;;6277620;22;19969;-76
2022/06/14 16:28:29;;;;;;;;;;;;;;;;;;6277404;22;20335;-70
2022/06/14 16:30:57;;;;;;;;;;;;;;;;;;6277320;22;19946;-70
2022/06/14 16:33:24;;;;;;;;;;;;;;;;;;6277152;22;19981;-75
2022/06/14 16:35:51;;;;;;;;;;;;;;;;;;6277374;22;19919;-72
2022/06/14 16:38:19;;;;;;;;;;;;;;;;;;6276990;22;20349;-73
2022/06/14 16:40:46;;;;;;;;;;;;;;;;;;6277460;22;19926;-75
2022/06/14 16:43:15;;;;;;;;;;;;;;;;;;6277365;22;19915;-74
2022/06/14 16:45:42;;;;;;;;;;;;;;;;;;6277111;22;20383;-74
2022/06/14 16:48:10;;;;;;;;;;;;;;;;;;6276888;22;19915;-73
2022/06/14 16:50:38;;;;;;;;;;;;;;;;;;6276776;22;20083;-71
2022/06/14 16:53:05;;;;;;;;;;;;;;;;;;6249386;22;19923;-72
2022/06/14 16:55:32;;;;;;;;;;;;;;;;;;6276907;22;20002;-73
2022/06/14 16:58:00;;;;;;;;;;;;;;;;;;6276912;22;20456;-74
2022/06/14 17:00:29;;;;;;;;;;;;;;;;;;6277241;22;19949;-73
2022/06/14 17:03:09;;;;;;;;;;;;;;;;;;6248790;22;20226;-75
2022/06/14 17:05:37;;;;;;;;;;;;;;;;;;6248863;22;19915;-75
2022/06/14 17:08:04;;;;;;;;;;;;;;;;;;6275021;22;19916;-78
2022/06/14 17:10:32;;;;;;;;;;;;;;;;;;6275815;22;20293;-78
2022/06/14 17:12:59;;;;;;;;;;;;;;;;;;6275478;22;19922;-77